sensor_id;sensor_type;location;lat;lon;timestamp;pressure;altitude;pressure_sealevel;temperature;humidity
21728;BME280;11026;50.560;17.852;2023-04-25T00:00:35;98599.81;;;9.97;100.00
21728;BME280;11026;50.560;17.852;2023-04-25T00:03:02;98597.53;;;9.91;100.00
21728;BME280;11026;50.560;17.852;2023-04-25T00:05:34;98589.09;;;9.84;100.00
21728;BME280;11026;50.560;17.852;2023-04-25T00:08:11;98592.50;;;9.87;100.00
21728;BME280;11026;50.560;17.852;2023-04-25T00:10:38;98597.88;;;9.85;100.00
21728;BME280;11026;50.560;17.852;2023-04-25T00:13:06;98605.19;;;9.80;100.00
21728;BME280;11026;50.560;17.852;2023-04-25T00:15:35;98602.47;;;9.81;100.00
21728;BME280;11026;50.560;17.852;2023-04-25T00:18:03;98601.72;;;9.79;100.00
21728;BME280;11026;50.560;17.852;2023-04-25T00:20:30;98599.91;;;9.80;100.00
21728;BME280;11026;50.560;17.852;2023-04-25T00:22:57;98591.72;;;9.69;100.00
21728;BME280;11026;50.560;17.852;2023-04-25T00:25:31;98596.31;;;9.65;100.00
21728;BME280;11026;50.560;17.852;2023-04-25T00:27:59;98595.75;;;9.60;99.81
21728;BME280;11026;50.560;17.852;2023-04-25T00:30:27;98587.66;;;9.47;99.04
21728;BME280;11026;50.560;17.852;2023-04-25T00:32:55;98593.78;;;9.48;98.33
21728;BME280;11026;50.560;17.852;2023-04-25T00:35:23;98604.41;;;9.46;99.11
21728;BME280;11026;50.560;17.852;2023-04-25T00:37:50;98590.75;;;9.38;98.54
21728;BME280;11026;50.560;17.852;2023-04-25T00:40:17;98595.13;;;9.39;99.24
21728;BME280;11026;50.560;17.852;2023-04-25T00:42:45;98599.78;;;9.34;100.00
21728;BME280;11026;50.560;17.852;2023-04-25T00:45:15;98598.09;;;9.33;100.00
21728;BME280;11026;50.560;17.852;2023-04-25T00:47:43;98599.63;;;9.37;100.00
21728;BME280;11026;50.560;17.852;2023-04-25T00:50:12;98597.13;;;9.34;99.93
21728;BME280;11026;50.560;17.852;2023-04-25T00:52:43;98606.34;;;9.27;99.69
21728;BME280;11026;50.560;17.852;2023-04-25T00:55:10;98609.75;;;9.29;98.28
21728;BME280;11026;50.560;17.852;2023-04-25T00:57:38;98613.16;;;9.31;98.19
21728;BME280;11026;50.560;17.852;2023-04-25T01:02:48;98622.66;;;9.18;97.11
21728;BME280;11026;50.560;17.852;2023-04-25T01:05:17;98619.09;;;9.19;94.74
21728;BME280;11026;50.560;17.852;2023-04-25T01:07:46;98616.91;;;9.09;95.87
21728;BME280;11026;50.560;17.852;2023-04-25T01:10:14;98623.28;;;9.23;96.66
21728;BME280;11026;50.560;17.852;2023-04-25T01:12:42;98628.25;;;9.11;95.25
21728;BME280;11026;50.560;17.852;2023-04-25T01:15:09;98623.84;;;9.12;96.08
21728;BME280;11026;50.560;17.852;2023-04-25T01:17:44;98621.47;;;9.23;94.97
21728;BME280;11026;50.560;17.852;2023-04-25T01:20:11;98613.63;;;9.22;94.00
21728;BME280;11026;50.560;17.852;2023-04-25T01:22:41;98625.06;;;9.05;94.95
21728;BME280;11026;50.560;17.852;2023-04-25T01:25:09;98627.16;;;9.16;94.59
21728;BME280;11026;50.560;17.852;2023-04-25T01:27:37;98620.78;;;9.20;93.86
21728;BME280;11026;50.560;17.852;2023-04-25T01:30:07;98620.00;;;9.18;93.70
21728;BME280;11026;50.560;17.852;2023-04-25T01:32:34;98629.50;;;9.04;94.82
21728;BME280;11026;50.560;17.852;2023-04-25T01:35:07;98623.28;;;9.05;93.97
21728;BME280;11026;50.560;17.852;2023-04-25T01:37:42;98632.16;;;9.04;93.60
21728;BME280;11026;50.560;17.852;2023-04-25T01:40:11;98634.19;;;8.99;93.17
21728;BME280;11026;50.560;17.852;2023-04-25T01:42:41;98629.59;;;9.03;92.59
21728;BME280;11026;50.560;17.852;2023-04-25T01:45:11;98628.56;;;9.05;93.24
21728;BME280;11026;50.560;17.852;2023-04-25T01:47:41;98619.72;;;9.06;92.87
21728;BME280;11026;50.560;17.852;2023-04-25T01:50:12;98625.16;;;9.03;92.17
21728;BME280;11026;50.560;17.852;2023-04-25T01:52:42;98634.63;;;8.90;91.69
21728;BME280;11026;50.560;17.852;2023-04-25T01:55:11;98626.41;;;8.96;90.87
21728;BME280;11026;50.560;17.852;2023-04-25T01:57:39;98627.34;;;8.95;89.31
21728;BME280;11026;50.560;17.852;2023-04-25T02:00:07;98627.50;;;8.92;90.87
21728;BME280;11026;50.560;17.852;2023-04-25T02:02:35;98624.94;;;8.91;91.34
21728;BME280;11026;50.560;17.852;2023-04-25T02:05:03;98630.19;;;8.91;89.90
21728;BME280;11026;50.560;17.852;2023-04-25T02:07:32;98628.25;;;8.94;90.86
21728;BME280;11026;50.560;17.852;2023-04-25T02:09:59;98626.66;;;8.92;90.55
21728;BME280;11026;50.560;17.852;2023-04-25T02:12:28;98634.63;;;8.90;90.06
21728;BME280;11026;50.560;17.852;2023-04-25T02:14:56;98630.28;;;8.89;90.39
21728;BME280;11026;50.560;17.852;2023-04-25T02:17:23;98635.56;;;8.89;89.88
21728;BME280;11026;50.560;17.852;2023-04-25T02:19:50;98628.00;;;8.83;90.44
21728;BME280;11026;50.560;17.852;2023-04-25T02:22:18;98624.41;;;8.84;90.66
21728;BME280;11026;50.560;17.852;2023-04-25T02:24:46;98628.84;;;8.83;89.39
21728;BME280;11026;50.560;17.852;2023-04-25T02:27:14;98634.50;;;8.76;90.07
21728;BME280;11026;50.560;17.852;2023-04-25T02:29:49;98631.38;;;8.85;90.44
21728;BME280;11026;50.560;17.852;2023-04-25T02:32:16;98641.19;;;8.83;90.17
21728;BME280;11026;50.560;17.852;2023-04-25T02:34:43;98639.06;;;8.90;89.09
21728;BME280;11026;50.560;17.852;2023-04-25T02:37:13;98641.00;;;8.86;89.54
21728;BME280;11026;50.560;17.852;2023-04-25T02:39:42;98647.34;;;8.82;89.97
21728;BME280;11026;50.560;17.852;2023-04-25T02:42:10;98638.69;;;8.80;89.43
21728;BME280;11026;50.560;17.852;2023-04-25T02:44:38;98643.50;;;8.72;89.57
21728;BME280;11026;50.560;17.852;2023-04-25T02:47:06;98640.41;;;8.64;90.15
21728;BME280;11026;50.560;17.852;2023-04-25T02:49:34;98637.50;;;8.85;90.46
21728;BME280;11026;50.560;17.852;2023-04-25T02:52:02;98639.28;;;8.85;91.65
21728;BME280;11026;50.560;17.852;2023-04-25T02:54:30;98645.50;;;8.84;91.63
21728;BME280;11026;50.560;17.852;2023-04-25T02:56:58;98639.91;;;8.73;92.40
21728;BME280;11026;50.560;17.852;2023-04-25T02:59:26;98646.13;;;8.72;92.64
21728;BME280;11026;50.560;17.852;2023-04-25T03:01:53;98641.88;;;8.52;93.33
21728;BME280;11026;50.560;17.852;2023-04-25T03:04:20;98632.41;;;8.65;90.97
21728;BME280;11026;50.560;17.852;2023-04-25T03:06:50;98632.63;;;8.60;91.00
21728;BME280;11026;50.560;17.852;2023-04-25T03:09:19;98636.03;;;8.62;90.78
21728;BME280;11026;50.560;17.852;2023-04-25T03:11:48;98634.47;;;8.58;91.86
21728;BME280;11026;50.560;17.852;2023-04-25T03:14:16;98639.59;;;8.61;91.65
21728;BME280;11026;50.560;17.852;2023-04-25T03:16:43;98635.75;;;8.69;91.50
21728;BME280;11026;50.560;17.852;2023-04-25T03:19:10;98639.13;;;8.71;89.79
21728;BME280;11026;50.560;17.852;2023-04-25T03:21:38;98629.06;;;8.61;89.74
21728;BME280;11026;50.560;17.852;2023-04-25T03:24:05;98634.66;;;8.55;90.34
21728;BME280;11026;50.560;17.852;2023-04-25T03:26:33;98632.06;;;8.54;90.89
21728;BME280;11026;50.560;17.852;2023-04-25T03:29:00;98644.13;;;8.59;90.11
21728;BME280;11026;50.560;17.852;2023-04-25T03:31:28;98636.72;;;8.49;89.57
21728;BME280;11026;50.560;17.852;2023-04-25T03:33:56;98630.84;;;8.44;89.35
21728;BME280;11026;50.560;17.852;2023-04-25T03:36:24;98641.44;;;8.42;90.52
21728;BME280;11026;50.560;17.852;2023-04-25T03:38:57;98633.69;;;8.39;91.51
21728;BME280;11026;50.560;17.852;2023-04-25T03:41:25;98641.69;;;8.37;91.83
21728;BME280;11026;50.560;17.852;2023-04-25T03:43:52;98638.19;;;8.37;91.41
21728;BME280;11026;50.560;17.852;2023-04-25T03:46:20;98638.31;;;8.34;91.22
21728;BME280;11026;50.560;17.852;2023-04-25T03:48:47;98637.69;;;8.29;92.29
21728;BME280;11026;50.560;17.852;2023-04-25T03:51:15;98647.28;;;8.30;92.24
21728;BME280;11026;50.560;17.852;2023-04-25T03:53:49;98653.50;;;8.29;92.39
21728;BME280;11026;50.560;17.852;2023-04-25T03:56:19;98653.63;;;8.26;92.46
21728;BME280;11026;50.560;17.852;2023-04-25T03:58:49;98663.09;;;8.30;92.67
21728;BME280;11026;50.560;17.852;2023-04-25T04:01:16;98663.19;;;8.28;93.03
21728;BME280;11026;50.560;17.852;2023-04-25T04:03:44;98659.91;;;8.23;92.50
21728;BME280;11026;50.560;17.852;2023-04-25T04:06:12;98660.91;;;8.21;91.93
21728;BME280;11026;50.560;17.852;2023-04-25T04:08:47;98659.91;;;8.23;93.05
21728;BME280;11026;50.560;17.852;2023-04-25T04:11:15;98659.91;;;8.23;93.43
21728;BME280;11026;50.560;17.852;2023-04-25T04:13:42;98657.50;;;8.19;94.03
21728;BME280;11026;50.560;17.852;2023-04-25T04:16:11;98661.19;;;8.14;93.92
21728;BME280;11026;50.560;17.852;2023-04-25T04:18:45;98656.50;;;8.21;94.17
21728;BME280;11026;50.560;17.852;2023-04-25T04:21:12;98656.59;;;8.20;94.35
21728;BME280;11026;50.560;17.852;2023-04-25T04:23:40;98661.84;;;8.20;94.50
21728;BME280;11026;50.560;17.852;2023-04-25T04:26:09;98662.47;;;8.25;92.24
21728;BME280;11026;50.560;17.852;2023-04-25T04:28:37;98659.03;;;8.23;92.96
21728;BME280;11026;50.560;17.852;2023-04-25T04:31:05;98665.72;;;8.30;92.98
21728;BME280;11026;50.560;17.852;2023-04-25T04:33:33;98656.69;;;8.35;93.27
21728;BME280;11026;50.560;17.852;2023-04-25T04:36:00;98652.13;;;8.39;93.60
21728;BME280;11026;50.560;17.852;2023-04-25T04:38:30;98652.94;;;8.41;93.56
21728;BME280;11026;50.560;17.852;2023-04-25T04:40:58;98650.16;;;8.44;93.93
21728;BME280;11026;50.560;17.852;2023-04-25T04:43:25;98656.50;;;8.40;93.04
21728;BME280;11026;50.560;17.852;2023-04-25T04:45:52;98647.00;;;8.36;93.87
21728;BME280;11026;50.560;17.852;2023-04-25T04:48:29;98653.19;;;8.35;93.64
21728;BME280;11026;50.560;17.852;2023-04-25T04:51:00;98656.50;;;8.40;93.40
21728;BME280;11026;50.560;17.852;2023-04-25T04:53:27;98654.63;;;8.42;93.82
21728;BME280;11026;50.560;17.852;2023-04-25T04:56:01;98655.56;;;8.41;94.21
21728;BME280;11026;50.560;17.852;2023-04-25T04:58:29;98661.16;;;8.33;95.90
21728;BME280;11026;50.560;17.852;2023-04-25T05:00:57;98660.50;;;8.11;97.25
21728;BME280;11026;50.560;17.852;2023-04-25T05:03:26;98659.09;;;8.04;98.28
21728;BME280;11026;50.560;17.852;2023-04-25T05:05:55;98657.72;;;7.95;100.00
21728;BME280;11026;50.560;17.852;2023-04-25T05:08:23;98663.78;;;7.97;100.00
21728;BME280;11026;50.560;17.852;2023-04-25T05:10:50;98658.38;;;8.00;100.00
21728;BME280;11026;50.560;17.852;2023-04-25T05:13:19;98670.13;;;7.93;100.00
21728;BME280;11026;50.560;17.852;2023-04-25T05:15:46;98663.78;;;7.97;100.00
21728;BME280;11026;50.560;17.852;2023-04-25T05:18:14;98663.06;;;8.12;100.00
21728;BME280;11026;50.560;17.852;2023-04-25T05:20:41;98669.41;;;8.08;99.95
21728;BME280;11026;50.560;17.852;2023-04-25T05:23:10;98670.13;;;8.12;98.21
21728;BME280;11026;50.560;17.852;2023-04-25T05:25:40;98674.50;;;8.11;99.98
21728;BME280;11026;50.560;17.852;2023-04-25T05:28:07;98674.78;;;8.24;98.00
21728;BME280;11026;50.560;17.852;2023-04-25T05:30:36;98666.53;;;8.32;96.33
21728;BME280;11026;50.560;17.852;2023-04-25T05:33:03;98662.53;;;8.42;96.04
21728;BME280;11026;50.560;17.852;2023-04-25T05:35:31;98661.31;;;8.67;94.64
21728;BME280;11026;50.560;17.852;2023-04-25T05:37:59;98668.94;;;8.73;92.66
21728;BME280;11026;50.560;17.852;2023-04-25T05:40:27;98666.91;;;8.95;91.76
21728;BME280;11026;50.560;17.852;2023-04-25T05:42:55;98659.97;;;9.10;90.03
21728;BME280;11026;50.560;17.852;2023-04-25T05:45:24;98662.31;;;9.16;87.33
21728;BME280;11026;50.560;17.852;2023-04-25T05:47:53;98666.94;;;9.28;85.99
21728;BME280;11026;50.560;17.852;2023-04-25T05:50:21;98671.28;;;9.29;84.52
21728;BME280;11026;50.560;17.852;2023-04-25T05:52:50;98668.28;;;9.20;85.76
21728;BME280;11026;50.560;17.852;2023-04-25T05:55:18;98664.06;;;9.33;84.71
21728;BME280;11026;50.560;17.852;2023-04-25T05:57:45;98666.69;;;9.50;83.94
21728;BME280;11026;50.560;17.852;2023-04-25T06:00:14;98665.91;;;9.48;81.89
21728;BME280;11026;50.560;17.852;2023-04-25T06:02:42;98674.25;;;9.56;81.02
21728;BME280;11026;50.560;17.852;2023-04-25T06:05:11;98671.63;;;9.56;81.52
21728;BME280;11026;50.560;17.852;2023-04-25T06:07:39;98668.84;;;9.42;79.24
21728;BME280;11026;50.560;17.852;2023-04-25T06:10:08;98668.03;;;9.57;79.85
21728;BME280;11026;50.560;17.852;2023-04-25T06:12:38;98676.13;;;9.54;79.27
21728;BME280;11026;50.560;17.852;2023-04-25T06:15:07;98675.78;;;9.60;78.76
21728;BME280;11026;50.560;17.852;2023-04-25T06:17:52;98686.34;;;9.60;79.61
21728;BME280;11026;50.560;17.852;2023-04-25T06:20:19;98679.03;;;9.66;78.66
21728;BME280;11026;50.560;17.852;2023-04-25T06:22:51;98676.22;;;9.69;78.17
21728;BME280;11026;50.560;17.852;2023-04-25T06:25:20;98678.28;;;9.64;77.90
21728;BME280;11026;50.560;17.852;2023-04-25T06:27:47;98683.13;;;9.55;79.45
21728;BME280;11026;50.560;17.852;2023-04-25T06:30:15;98679.38;;;9.59;78.33
21728;BME280;11026;50.560;17.852;2023-04-25T06:32:45;98677.03;;;9.71;78.88
21728;BME280;11026;50.560;17.852;2023-04-25T06:35:13;98672.06;;;9.65;76.93
21728;BME280;11026;50.560;17.852;2023-04-25T06:37:42;98688.84;;;9.64;77.04
21728;BME280;11026;50.560;17.852;2023-04-25T06:40:10;98686.59;;;9.56;78.55
21728;BME280;11026;50.560;17.852;2023-04-25T06:42:39;98685.94;;;9.68;79.74
21728;BME280;11026;50.560;17.852;2023-04-25T06:45:07;98688.06;;;9.61;77.61
21728;BME280;11026;50.560;17.852;2023-04-25T06:47:34;98688.41;;;9.55;78.07
21728;BME280;11026;50.560;17.852;2023-04-25T06:50:02;98676.75;;;9.59;76.38
21728;BME280;11026;50.560;17.852;2023-04-25T06:52:29;98679.28;;;9.61;76.76
21728;BME280;11026;50.560;17.852;2023-04-25T06:54:57;98677.28;;;9.66;77.41
21728;BME280;11026;50.560;17.852;2023-04-25T06:57:24;98679.13;;;9.64;76.74
21728;BME280;11026;50.560;17.852;2023-04-25T06:59:51;98679.81;;;9.68;78.22
21728;BME280;11026;50.560;17.852;2023-04-25T07:02:18;98680.78;;;9.82;80.71
21728;BME280;11026;50.560;17.852;2023-04-25T07:04:48;98682.34;;;10.02;77.37
21728;BME280;11026;50.560;17.852;2023-04-25T07:07:15;98669.19;;;9.85;76.60
21728;BME280;11026;50.560;17.852;2023-04-25T07:09:55;98675.94;;;9.91;74.42
21728;BME280;11026;50.560;17.852;2023-04-25T07:12:22;98680.28;;;10.07;72.69
21728;BME280;11026;50.560;17.852;2023-04-25T07:14:49;98681.03;;;10.09;74.34
21728;BME280;11026;50.560;17.852;2023-04-25T07:17:17;98676.97;;;10.20;73.55
21728;BME280;11026;50.560;17.852;2023-04-25T07:19:44;98680.38;;;10.22;74.45
21728;BME280;11026;50.560;17.852;2023-04-25T07:22:11;98681.25;;;10.38;73.22
21728;BME280;11026;50.560;17.852;2023-04-25T07:24:45;98674.88;;;10.26;74.54
21728;BME280;11026;50.560;17.852;2023-04-25T07:27:16;98674.91;;;10.41;73.57
21728;BME280;11026;50.560;17.852;2023-04-25T07:29:45;98680.88;;;10.44;73.18
21728;BME280;11026;50.560;17.852;2023-04-25T07:32:12;98668.50;;;10.45;73.76
21728;BME280;11026;50.560;17.852;2023-04-25T07:34:53;98682.41;;;10.48;74.57
21728;BME280;11026;50.560;17.852;2023-04-25T07:37:20;98682.06;;;10.54;70.77
21728;BME280;11026;50.560;17.852;2023-04-25T07:39:48;98675.28;;;10.65;70.99
21728;BME280;11026;50.560;17.852;2023-04-25T07:42:18;98671.94;;;10.77;71.76
21728;BME280;11026;50.560;17.852;2023-04-25T07:44:45;98673.50;;;10.81;68.42
21728;BME280;11026;50.560;17.852;2023-04-25T07:47:12;98680.66;;;10.79;71.54
21728;BME280;11026;50.560;17.852;2023-04-25T07:49:40;98674.88;;;11.02;71.98
21728;BME280;11026;50.560;17.852;2023-04-25T07:52:08;98677.13;;;11.08;66.46
21728;BME280;11026;50.560;17.852;2023-04-25T07:54:36;98680.38;;;11.14;68.41
21728;BME280;11026;50.560;17.852;2023-04-25T07:57:04;98683.09;;;11.12;68.10
21728;BME280;11026;50.560;17.852;2023-04-25T07:59:34;98676.38;;;11.06;63.91
21728;BME280;11026;50.560;17.852;2023-04-25T08:02:01;98675.25;;;11.11;65.98
21728;BME280;11026;50.560;17.852;2023-04-25T08:04:29;98677.13;;;11.08;62.13
21728;BME280;11026;50.560;17.852;2023-04-25T08:06:57;98680.47;;;11.26;60.42
21728;BME280;11026;50.560;17.852;2023-04-25T08:09:25;98684.00;;;11.41;61.49
21728;BME280;11026;50.560;17.852;2023-04-25T08:11:52;98679.75;;;11.53;62.40
21728;BME280;11026;50.560;17.852;2023-04-25T08:14:22;98670.94;;;11.67;60.12
21728;BME280;11026;50.560;17.852;2023-04-25T08:16:50;98680.03;;;11.77;59.57
21728;BME280;11026;50.560;17.852;2023-04-25T08:19:18;98678.44;;;11.89;62.17
21728;BME280;11026;50.560;17.852;2023-04-25T08:21:45;98679.47;;;12.00;58.76
21728;BME280;11026;50.560;17.852;2023-04-25T08:24:13;98673.94;;;12.18;59.66
21728;BME280;11026;50.560;17.852;2023-04-25T08:26:40;98672.97;;;12.33;58.55
21728;BME280;11026;50.560;17.852;2023-04-25T08:29:08;98673.63;;;12.22;58.81
21728;BME280;11026;50.560;17.852;2023-04-25T08:31:35;98681.28;;;12.27;59.97
21728;BME280;11026;50.560;17.852;2023-04-25T08:34:03;98688.53;;;11.82;57.40
21728;BME280;11026;50.560;17.852;2023-04-25T08:36:31;98688.28;;;11.87;58.29
21728;BME280;11026;50.560;17.852;2023-04-25T08:39:05;98688.09;;;12.04;58.59
21728;BME280;11026;50.560;17.852;2023-04-25T08:41:33;98678.28;;;12.19;58.94
21728;BME280;11026;50.560;17.852;2023-04-25T08:44:03;98674.91;;;12.44;58.80
21728;BME280;11026;50.560;17.852;2023-04-25T08:46:30;98681.03;;;12.32;58.75
21728;BME280;11026;50.560;17.852;2023-04-25T08:49:01;98691.13;;;11.98;57.91
21728;BME280;11026;50.560;17.852;2023-04-25T08:51:31;98680.81;;;11.93;59.26
21728;BME280;11026;50.560;17.852;2023-04-25T08:54:09;98681.28;;;12.27;58.96
21728;BME280;11026;50.560;17.852;2023-04-25T08:56:45;98691.06;;;12.26;58.50
21728;BME280;11026;50.560;17.852;2023-04-25T08:59:13;98699.91;;;12.13;59.58
21728;BME280;11026;50.560;17.852;2023-04-25T09:01:41;98696.31;;;11.99;59.88
21728;BME280;11026;50.560;17.852;2023-04-25T09:04:09;98695.56;;;11.97;59.51
21728;BME280;11026;50.560;17.852;2023-04-25T09:06:36;98695.75;;;12.09;60.51
21728;BME280;11026;50.560;17.852;2023-04-25T09:09:08;98705.88;;;12.16;60.30
21728;BME280;11026;50.560;17.852;2023-04-25T09:11:36;98696.16;;;11.88;60.64
21728;BME280;11026;50.560;17.852;2023-04-25T09:14:20;98694.63;;;11.84;60.72
21728;BME280;11026;50.560;17.852;2023-04-25T09:19:34;98699.84;;;12.00;59.09
21728;BME280;11026;50.560;17.852;2023-04-25T09:22:07;98700.16;;;12.22;59.23
21728;BME280;11026;50.560;17.852;2023-04-25T09:24:40;98699.84;;;12.41;59.75
21728;BME280;11026;50.560;17.852;2023-04-25T09:27:19;98705.09;;;12.55;58.61
21728;BME280;11026;50.560;17.852;2023-04-25T09:29:58;98703.19;;;12.58;59.18
21728;BME280;11026;50.560;17.852;2023-04-25T09:32:29;98700.19;;;12.49;60.72
21728;BME280;11026;50.560;17.852;2023-04-25T09:34:59;98704.28;;;12.41;60.34
21728;BME280;11026;50.560;17.852;2023-04-25T09:37:29;98701.84;;;12.65;60.15
21728;BME280;11026;50.560;17.852;2023-04-25T09:39:58;98702.53;;;12.54;61.95
21728;BME280;11026;50.560;17.852;2023-04-25T09:42:28;98697.94;;;12.43;61.52
21728;BME280;11026;50.560;17.852;2023-04-25T09:45:03;98706.19;;;12.66;60.99
21728;BME280;11026;50.560;17.852;2023-04-25T09:47:31;98700.66;;;12.56;58.15
21728;BME280;11026;50.560;17.852;2023-04-25T09:49:58;98693.72;;;12.53;57.65
21728;BME280;11026;50.560;17.852;2023-04-25T09:52:26;98691.13;;;12.66;60.47
21728;BME280;11026;50.560;17.852;2023-04-25T09:54:54;98683.25;;;12.65;59.00
21728;BME280;11026;50.560;17.852;2023-04-25T09:57:25;98687.56;;;12.80;57.39
21728;BME280;11026;50.560;17.852;2023-04-25T09:59:55;98694.41;;;12.70;57.36
21728;BME280;11026;50.560;17.852;2023-04-25T10:02:24;98692.69;;;12.56;58.09
21728;BME280;11026;50.560;17.852;2023-04-25T10:04:55;98689.88;;;12.72;59.55
21728;BME280;11026;50.560;17.852;2023-04-25T10:07:25;98684.56;;;12.72;59.87
21728;BME280;11026;50.560;17.852;2023-04-25T10:10:02;98680.59;;;13.04;59.46
21728;BME280;11026;50.560;17.852;2023-04-25T10:12:32;98688.44;;;13.06;60.09
21728;BME280;11026;50.560;17.852;2023-04-25T10:15:02;98678.13;;;13.28;59.83
21728;BME280;11026;50.560;17.852;2023-04-25T10:17:31;98686.56;;;13.21;57.12
21728;BME280;11026;50.560;17.852;2023-04-25T10:20:01;98683.09;;;13.33;56.42
21728;BME280;11026;50.560;17.852;2023-04-25T10:22:32;98667.28;;;13.44;57.35
21728;BME280;11026;50.560;17.852;2023-04-25T10:25:03;98676.84;;;13.34;56.50
21728;BME280;11026;50.560;17.852;2023-04-25T10:27:33;98678.97;;;13.29;57.35
21728;BME280;11026;50.560;17.852;2023-04-25T10:32:35;98672.56;;;13.95;55.06
21728;BME280;11026;50.560;17.852;2023-04-25T10:35:23;98665.28;;;13.97;53.68
21728;BME280;11026;50.560;17.852;2023-04-25T10:38:31;98668.00;;;13.72;54.52
21728;BME280;11026;50.560;17.852;2023-04-25T10:41:05;98659.81;;;14.48;55.29
21728;BME280;11026;50.560;17.852;2023-04-25T10:43:41;98659.34;;;15.03;52.86
21728;BME280;11026;50.560;17.852;2023-04-25T10:46:26;98657.09;;;15.20;52.44
21728;BME280;11026;50.560;17.852;2023-04-25T10:48:56;98660.53;;;14.98;49.06
21728;BME280;11026;50.560;17.852;2023-04-25T10:51:31;98662.44;;;14.37;51.10
21728;BME280;11026;50.560;17.852;2023-04-25T10:54:19;98656.50;;;13.84;50.94
21728;BME280;11026;50.560;17.852;2023-04-25T10:56:48;98658.00;;;13.88;52.89
21728;BME280;11026;50.560;17.852;2023-04-25T10:59:18;98664.13;;;14.01;52.09
21728;BME280;11026;50.560;17.852;2023-04-25T11:01:47;98648.50;;;14.10;51.52
21728;BME280;11026;50.560;17.852;2023-04-25T11:04:24;98652.16;;;13.83;53.88
21728;BME280;11026;50.560;17.852;2023-04-25T11:09:40;98669.19;;;13.55;53.04
21728;BME280;11026;50.560;17.852;2023-04-25T11:12:09;98658.16;;;13.48;53.19
21728;BME280;11026;50.560;17.852;2023-04-25T11:14:39;98639.34;;;13.51;51.77
21728;BME280;11026;50.560;17.852;2023-04-25T11:17:17;98650.28;;;13.60;52.93
21728;BME280;11026;50.560;17.852;2023-04-25T11:19:48;98636.97;;;13.72;53.50
21728;BME280;11026;50.560;17.852;2023-04-25T11:22:17;98652.66;;;13.88;54.83
21728;BME280;11026;50.560;17.852;2023-04-25T11:24:45;98655.53;;;13.85;54.58
21728;BME280;11026;50.560;17.852;2023-04-25T11:27:14;98645.50;;;14.01;54.15
21728;BME280;11026;50.560;17.852;2023-04-25T11:29:42;98646.41;;;14.26;53.01
21728;BME280;11026;50.560;17.852;2023-04-25T11:32:17;98633.50;;;14.57;52.19
21728;BME280;11026;50.560;17.852;2023-04-25T11:34:46;98636.06;;;14.58;52.31
21728;BME280;11026;50.560;17.852;2023-04-25T11:37:20;98651.16;;;14.34;52.67
21728;BME280;11026;50.560;17.852;2023-04-25T11:39:48;98642.47;;;14.56;52.52
21728;BME280;11026;50.560;17.852;2023-04-25T11:42:15;98652.03;;;14.82;51.59
21728;BME280;11026;50.560;17.852;2023-04-25T11:44:43;98624.22;;;14.97;52.21
21728;BME280;11026;50.560;17.852;2023-04-25T11:47:11;98643.88;;;15.19;51.34
21728;BME280;11026;50.560;17.852;2023-04-25T11:49:39;98643.69;;;15.33;49.88
21728;BME280;11026;50.560;17.852;2023-04-25T11:52:08;98650.59;;;15.00;49.36
21728;BME280;11026;50.560;17.852;2023-04-25T11:54:38;98644.06;;;14.93;50.41
21728;BME280;11026;50.560;17.852;2023-04-25T11:57:05;98644.53;;;14.87;51.70
21728;BME280;11026;50.560;17.852;2023-04-25T11:59:33;98647.41;;;14.84;51.03
21728;BME280;11026;50.560;17.852;2023-04-25T12:02:00;98651.69;;;14.02;50.68
21728;BME280;11026;50.560;17.852;2023-04-25T12:04:32;98649.06;;;13.76;51.50
21728;BME280;11026;50.560;17.852;2023-04-25T12:07:00;98644.44;;;13.67;53.00
21728;BME280;11026;50.560;17.852;2023-04-25T12:09:33;98646.44;;;13.64;54.80
21728;BME280;11026;50.560;17.852;2023-04-25T12:12:01;98647.19;;;13.78;51.80
21728;BME280;11026;50.560;17.852;2023-04-25T12:14:34;98641.75;;;13.80;55.44
21728;BME280;11026;50.560;17.852;2023-04-25T12:17:04;98640.69;;;13.83;52.85
21728;BME280;11026;50.560;17.852;2023-04-25T12:19:38;98647.88;;;13.93;53.87
21728;BME280;11026;50.560;17.852;2023-04-25T12:22:22;98638.94;;;13.94;53.59
21728;BME280;11026;50.560;17.852;2023-04-25T12:24:51;98636.13;;;14.09;52.73
21728;BME280;11026;50.560;17.852;2023-04-25T12:27:20;98636.91;;;14.59;52.51
21728;BME280;11026;50.560;17.852;2023-04-25T12:29:52;98643.56;;;14.88;52.73
21728;BME280;11026;50.560;17.852;2023-04-25T12:32:21;98646.06;;;14.31;53.72
21728;BME280;11026;50.560;17.852;2023-04-25T12:34:48;98642.41;;;14.08;52.77
21728;BME280;11026;50.560;17.852;2023-04-25T12:37:16;98647.66;;;13.96;52.81
21728;BME280;11026;50.560;17.852;2023-04-25T12:39:43;98654.81;;;13.83;52.55
21728;BME280;11026;50.560;17.852;2023-04-25T12:42:10;98650.75;;;13.90;51.98
21728;BME280;11026;50.560;17.852;2023-04-25T12:44:42;98642.59;;;14.17;52.16
21728;BME280;11026;50.560;17.852;2023-04-25T12:47:09;98640.69;;;14.43;53.60
21728;BME280;11026;50.560;17.852;2023-04-25T12:49:39;98647.56;;;15.29;53.49
21728;BME280;11026;50.560;17.852;2023-04-25T12:52:07;98642.97;;;15.87;51.13
21728;BME280;11026;50.560;17.852;2023-04-25T12:54:34;98639.81;;;16.16;50.09
21728;BME280;11026;50.560;17.852;2023-04-25T12:57:02;98624.97;;;16.23;50.27
21728;BME280;11026;50.560;17.852;2023-04-25T12:59:30;98621.78;;;15.86;47.88
21728;BME280;11026;50.560;17.852;2023-04-25T13:01:58;98645.28;;;14.89;46.84
21728;BME280;11026;50.560;17.852;2023-04-25T13:04:26;98643.22;;;14.45;48.95
21728;BME280;11026;50.560;17.852;2023-04-25T13:06:54;98637.72;;;14.11;48.96
21728;BME280;11026;50.560;17.852;2023-04-25T13:09:22;98639.06;;;13.80;49.15
21728;BME280;11026;50.560;17.852;2023-04-25T13:11:49;98633.03;;;14.15;49.91
21728;BME280;11026;50.560;17.852;2023-04-25T13:14:17;98628.22;;;15.03;51.27
21728;BME280;11026;50.560;17.852;2023-04-25T13:16:45;98644.03;;;14.82;47.58